Time;durP1;ratioP1;P1;durP2;ratioP2;P2;SDS_P1;SDS_P2;PMS_P1;PMS_P2;Temp;Humidity;BMP_temperature;BMP_pressure;BME280_temperature;BME280_humidity;BME280_pressure;Samples;Min_cycle;Max_cycle;Signal;HPM_P1;HPM_P2
2021/06/18 00:01:54;;;;;;;24.87;16.07;;;19.30;99.90;;;;;;5035661;28;20314;-75
2021/06/18 00:04:21;;;;;;;22.77;16.10;;;19.30;99.90;;;;;;5032571;28;20222;-76
2021/06/18 00:06:49;;;;;;;22.33;15.83;;;19.20;99.90;;;;;;5036923;28;20303;-77
2021/06/18 00:09:16;;;;;;;26.87;16.47;;;19.20;99.90;;;;;;5036691;28;20204;-77
2021/06/18 00:11:43;;;;;;;23.80;15.93;;;19.10;99.90;;;;;;5034578;28;20686;-76
2021/06/18 00:14:10;;;;;;;28.87;15.67;;;19.00;99.90;;;;;;5036413;28;20860;-75
2021/06/18 00:16:37;;;;;;;22.93;16.20;;;19.00;99.90;;;;;;5036511;28;20205;-76
2021/06/18 00:19:04;;;;;;;25.97;16.00;;;18.90;99.90;;;;;;5034017;28;20219;-74
2021/06/18 00:21:31;;;;;;;22.20;14.90;;;18.90;99.90;;;;;;5036026;28;20233;-78
2021/06/18 00:23:59;;;;;;;23.17;15.90;;;18.90;99.90;;;;;;5034232;28;20209;-75
2021/06/18 00:26:26;;;;;;;26.47;16.77;;;18.90;99.90;;;;;;5032942;28;20299;-75
2021/06/18 00:28:53;;;;;;;20.63;15.23;;;18.80;99.90;;;;;;5034304;28;20203;-77
2021/06/18 00:31:20;;;;;;;22.87;16.07;;;18.80;99.90;;;;;;5034499;28;20845;-75
2021/06/18 00:33:47;;;;;;;25.70;16.77;;;18.80;99.90;;;;;;5034874;28;20584;-77
2021/06/18 00:36:14;;;;;;;24.57;16.60;;;18.70;99.90;;;;;;5037719;28;20242;-76
2021/06/18 00:38:41;;;;;;;23.17;16.47;;;18.70;99.90;;;;;;5033894;28;20728;-75
2021/06/18 00:41:09;;;;;;;21.83;15.87;;;18.70;99.90;;;;;;5034246;28;20639;-76
2021/06/18 00:43:36;;;;;;;21.20;16.60;;;18.70;99.90;;;;;;5036725;28;20215;-75
2021/06/18 00:46:04;;;;;;;23.10;16.13;;;18.70;99.90;;;;;;5032182;28;20755;-75
2021/06/18 00:48:32;;;;;;;25.43;16.40;;;18.70;99.90;;;;;;5031485;28;20203;-75
2021/06/18 00:50:58;;;;;;;23.67;16.43;;;18.70;99.90;;;;;;5034372;28;20276;-74
2021/06/18 00:53:25;;;;;;;24.77;15.80;;;18.70;99.90;;;;;;5035084;28;20253;-75
2021/06/18 00:55:52;;;;;;;23.57;15.70;;;18.70;99.90;;;;;;5037328;28;20654;-75
2021/06/18 00:58:21;;;;;;;23.43;15.77;;;18.60;99.90;;;;;;5035177;28;20771;-77
2021/06/18 01:00:48;;;;;;;24.77;16.27;;;18.60;99.90;;;;;;5034487;28;20346;-77
2021/06/18 01:03:15;;;;;;;23.03;16.53;;;18.60;99.90;;;;;;5034898;28;20203;-75
2021/06/18 01:05:43;;;;;;;22.10;16.43;;;18.60;99.90;;;;;;5035158;28;21099;-77
2021/06/18 01:08:17;;;;;;;22.60;15.33;;;18.50;99.90;;;;;;5033532;28;20203;-77
2021/06/18 01:10:53;;;;;;;24.80;16.30;;;18.50;99.90;;;;;;5029519;23;20246;-77
2021/06/18 01:13:36;;;;;;;21.07;16.17;;;18.40;99.90;;;;;;4999311;28;20282;-76
2021/06/18 01:16:06;;;;;;;24.57;16.40;;;18.40;99.90;;;;;;4998551;28;20206;-77
2021/06/18 01:18:40;;;;;;;21.77;16.63;;;18.40;99.90;;;;;;5001265;28;20287;-77
2021/06/18 01:21:29;;;;;;;25.97;16.93;;;18.30;99.90;;;;;;4996471;28;20733;-76
2021/06/18 01:24:01;;;;;;;21.77;15.97;;;18.30;99.90;;;;;;4991635;28;20314;-77
2021/06/18 01:27:12;;;;;;;20.87;15.73;;;18.30;99.90;;;;;;4997434;28;20237;-77
2021/06/18 01:29:45;;;;;;;20.07;14.43;;;18.20;99.90;;;;;;5001722;28;20564;-76
2021/06/18 01:32:18;;;;;;;21.73;15.20;;;18.20;99.90;;;;;;4999398;28;20220;-77
2021/06/18 01:34:46;;;;;;;22.27;15.33;;;18.20;99.90;;;;;;5000533;28;20231;-76
2021/06/18 01:37:16;;;;;;;24.97;15.93;;;18.10;99.90;;;;;;4998687;28;20279;-76
2021/06/18 01:39:44;;;;;;;24.70;16.60;;;18.10;99.90;;;;;;5001333;28;20665;-77
2021/06/18 01:42:12;;;;;;;22.37;16.27;;;18.00;99.90;;;;;;4999374;28;20343;-76
2021/06/18 01:44:42;;;;;;;22.33;16.50;;;18.10;99.90;;;;;;4997888;28;20200;-76
2021/06/18 01:47:10;;;;;;;28.00;16.20;;;18.00;99.90;;;;;;4998874;28;20286;-77
2021/06/18 01:49:40;;;;;;;21.93;16.23;;;17.90;99.90;;;;;;4997814;28;20420;-76
2021/06/18 01:52:10;;;;;;;23.33;16.40;;;17.90;99.90;;;;;;4998331;28;20224;-76
2021/06/18 01:54:38;;;;;;;20.23;15.60;;;17.90;99.90;;;;;;5002496;28;20354;-76
2021/06/18 01:57:07;;;;;;;22.77;15.70;;;17.90;99.90;;;;;;5002731;28;20351;-76
2021/06/18 01:59:36;;;;;;;18.40;14.40;;;17.80;99.90;;;;;;4998070;28;20224;-77
2021/06/18 02:02:07;;;;;;;21.87;14.20;;;17.80;99.90;;;;;;4999944;28;20230;-77
2021/06/18 02:04:37;;;;;;;20.83;14.43;;;17.80;99.90;;;;;;4998224;28;20235;-78
2021/06/18 02:07:06;;;;;;;24.40;15.23;;;17.80;99.90;;;;;;4999978;28;20288;-78
2021/06/18 02:09:35;;;;;;;23.97;15.00;;;17.70;99.90;;;;;;4998915;28;20304;-78
2021/06/18 02:12:02;;;;;;;20.63;14.90;;;17.70;99.90;;;;;;5002145;28;20256;-76
2021/06/18 02:14:31;;;;;;;22.27;15.17;;;17.60;99.90;;;;;;4999203;28;20589;-76
2021/06/18 02:17:03;;;;;;;22.20;14.53;;;17.60;99.90;;;;;;5004637;28;20235;-75
2021/06/18 02:19:34;;;;;;;18.23;14.57;;;17.60;99.90;;;;;;4998233;28;20506;-77
2021/06/18 02:22:04;;;;;;;23.20;15.63;;;17.60;99.90;;;;;;4999896;28;20252;-77
2021/06/18 02:24:32;;;;;;;22.67;15.57;;;17.60;99.90;;;;;;4998896;28;20295;-77
2021/06/18 02:27:00;;;;;;;21.87;15.53;;;17.50;99.90;;;;;;4998584;28;20213;-77
2021/06/18 02:29:27;;;;;;;21.07;14.27;;;17.50;99.90;;;;;;5000085;28;20320;-77
2021/06/18 02:31:57;;;;;;;21.00;15.10;;;17.50;99.90;;;;;;5002571;28;20334;-77
2021/06/18 02:34:24;;;;;;;20.23;14.90;;;17.50;99.90;;;;;;5001705;28;20220;-77
2021/06/18 02:36:52;;;;;;;22.67;14.83;;;17.50;99.90;;;;;;5001486;28;20296;-77
2021/06/18 02:39:19;;;;;;;23.33;15.57;;;17.50;99.90;;;;;;4999368;28;20310;-78
2021/06/18 02:41:46;;;;;;;22.37;14.73;;;17.40;99.90;;;;;;4998240;28;20255;-78
2021/06/18 02:44:13;;;;;;;17.80;14.10;;;17.40;99.90;;;;;;5000188;28;20208;-78
2021/06/18 02:46:45;;;;;;;24.03;15.93;;;17.40;99.90;;;;;;4998458;28;20219;-78
2021/06/18 02:49:15;;;;;;;19.53;14.40;;;17.30;99.90;;;;;;5000408;28;20239;-78
2021/06/18 02:51:47;;;;;;;21.43;15.30;;;17.30;99.90;;;;;;4999753;28;20228;-78
2021/06/18 02:54:27;;;;;;;21.20;14.47;;;17.30;99.90;;;;;;5001449;28;20276;-78
2021/06/18 02:56:58;;;;;;;22.63;14.47;;;17.20;99.90;;;;;;4999994;28;20196;-77
2021/06/18 02:59:31;;;;;;;17.73;13.90;;;17.20;99.90;;;;;;4996419;28;20216;-75
2021/06/18 03:02:00;;;;;;;18.30;14.30;;;17.20;99.90;;;;;;4997757;28;20362;-75
2021/06/18 03:04:30;;;;;;;19.80;14.23;;;17.20;99.90;;;;;;4998770;28;20262;-75
2021/06/18 03:07:01;;;;;;;20.40;15.33;;;17.20;99.90;;;;;;5000238;28;20263;-76
2021/06/18 03:09:32;;;;;;;22.13;16.23;;;17.20;99.90;;;;;;5002775;28;20303;-75
2021/06/18 03:12:01;;;;;;;18.90;14.50;;;17.10;99.90;;;;;;5001388;28;20225;-75
2021/06/18 03:14:30;;;;;;;22.83;15.67;;;17.10;99.90;;;;;;5004519;28;20201;-75
2021/06/18 03:17:00;;;;;;;17.97;14.00;;;17.10;99.90;;;;;;5000930;28;20673;-75
2021/06/18 03:19:33;;;;;;;16.47;13.87;;;17.10;99.90;;;;;;5001860;28;20335;-76
2021/06/18 03:22:02;;;;;;;19.63;14.23;;;17.20;99.90;;;;;;5001202;28;20232;-74
2021/06/18 03:24:32;;;;;;;24.43;15.40;;;17.10;99.90;;;;;;4999314;28;20556;-73
2021/06/18 03:27:01;;;;;;;22.23;15.30;;;17.20;99.90;;;;;;5001757;28;21103;-74
2021/06/18 03:29:30;;;;;;;21.43;15.60;;;17.20;99.90;;;;;;4998325;28;20668;-75
2021/06/18 03:31:58;;;;;;;23.83;15.70;;;17.20;99.90;;;;;;5001270;28;20303;-75
2021/06/18 03:34:27;;;;;;;24.07;15.80;;;17.20;99.90;;;;;;5002282;28;20248;-74
2021/06/18 03:36:55;;;;;;;21.47;16.07;;;17.30;99.90;;;;;;4999096;28;20236;-76
2021/06/18 03:39:23;;;;;;;23.83;15.13;;;17.30;99.90;;;;;;4996736;28;20287;-76
2021/06/18 03:41:51;;;;;;;25.57;16.53;;;17.40;99.90;;;;;;4994752;28;20228;-76
2021/06/18 03:44:20;;;;;;;23.80;15.90;;;17.40;99.90;;;;;;4997747;28;20667;-76
2021/06/18 03:46:48;;;;;;;28.30;18.27;;;17.40;99.90;;;;;;5001692;28;20296;-76
2021/06/18 03:49:16;;;;;;;26.10;15.53;;;17.60;99.90;;;;;;4999228;28;20262;-76
2021/06/18 03:51:43;;;;;;;25.40;17.17;;;17.80;99.90;;;;;;4999145;28;20646;-76
2021/06/18 03:54:11;;;;;;;26.37;17.03;;;18.20;99.90;;;;;;5000281;28;20243;-76
2021/06/18 03:56:47;;;;;;;20.80;14.20;;;18.50;99.90;;;;;;4995525;28;20256;-75
2021/06/18 03:59:16;;;;;;;22.10;13.83;;;18.80;99.90;;;;;;4995654;28;20258;-77
2021/06/18 04:01:46;;;;;;;20.60;13.43;;;19.00;99.90;;;;;;4996665;28;20765;-76
2021/06/18 04:04:13;;;;;;;20.93;13.33;;;19.40;99.90;;;;;;4996360;28;20212;-77
2021/06/18 04:06:40;;;;;;;17.07;12.87;;;19.80;99.90;;;;;;4998541;28;20705;-75
2021/06/18 04:09:07;;;;;;;18.83;12.20;;;20.00;99.90;;;;;;5000413;28;20241;-75
2021/06/18 04:11:35;;;;;;;17.00;12.33;;;20.20;99.90;;;;;;4996739;28;20225;-76
2021/06/18 04:14:03;;;;;;;19.43;12.03;;;20.50;99.90;;;;;;4998948;28;21030;-77
2021/06/18 04:16:32;;;;;;;14.00;11.47;;;20.80;99.90;;;;;;5000847;28;20303;-77
2021/06/18 04:18:59;;;;;;;14.77;11.53;;;21.00;99.90;;;;;;4999846;28;20300;-77
2021/06/18 04:21:27;;;;;;;15.80;11.50;;;21.60;99.90;;;;;;5000267;28;20410;-77
2021/06/18 04:23:54;;;;;;;13.47;11.40;;;21.70;99.90;;;;;;4998212;28;20288;-76
2021/06/18 04:26:23;;;;;;;21.50;12.30;;;22.10;99.90;;;;;;4997035;28;20287;-74
2021/06/18 04:28:53;;;;;;;18.50;11.93;;;22.30;99.90;;;;;;5006422;28;20201;-76
2021/06/18 04:31:20;;;;;;;16.83;11.60;;;22.40;99.90;;;;;;5001136;28;20641;-77
2021/06/18 04:33:48;;;;;;;20.90;11.77;;;22.60;99.90;;;;;;4998526;28;20265;-74
2021/06/18 04:36:15;;;;;;;18.50;11.73;;;22.90;99.90;;;;;;5001461;28;20241;-75
2021/06/18 04:38:42;;;;;;;19.97;10.97;;;23.20;99.90;;;;;;4997364;28;20685;-74
2021/06/18 04:41:09;;;;;;;16.77;12.07;;;23.40;99.90;;;;;;4998094;28;20228;-75
2021/06/18 04:43:36;;;;;;;14.17;10.50;;;23.80;99.90;;;;;;4997495;28;20267;-75
2021/06/18 04:46:03;;;;;;;25.07;10.80;;;24.30;99.90;;;;;;4996550;28;20212;-75
2021/06/18 04:48:29;;;;;;;24.90;11.67;;;24.50;99.90;;;;;;4996709;28;20626;-74
2021/06/18 04:50:58;;;;;;;17.87;11.37;;;24.80;99.90;;;;;;4996853;28;20229;-76
2021/06/18 04:53:25;;;;;;;16.63;11.27;;;24.70;99.90;;;;;;5000259;28;20625;-76
2021/06/18 04:55:52;;;;;;;19.63;11.00;;;24.80;99.90;;;;;;4995237;28;20299;-76
2021/06/18 04:58:20;;;;;;;16.13;11.87;;;25.30;99.90;;;;;;5001548;28;20516;-75
2021/06/18 05:00:47;;;;;;;18.47;11.20;;;25.40;99.90;;;;;;4999198;28;20313;-76
2021/06/18 05:03:14;;;;;;;15.20;11.60;;;25.40;99.90;;;;;;4998838;28;20209;-76
2021/06/18 05:05:41;;;;;;;18.50;11.20;;;25.60;99.90;;;;;;5000478;28;20232;-76
2021/06/18 05:08:09;;;;;;;21.80;11.83;;;25.90;99.90;;;;;;5000653;28;20295;-76
2021/06/18 05:10:36;;;;;;;18.53;11.80;;;26.20;99.90;;;;;;4996315;28;20312;-77
2021/06/18 05:13:03;;;;;;;14.03;10.90;;;26.80;99.90;;;;;;5002417;28;20210;-76
2021/06/18 05:15:30;;;;;;;21.37;10.77;;;26.90;99.90;;;;;;4998912;28;20329;-76
2021/06/18 05:17:57;;;;;;;16.87;11.50;;;26.70;99.90;;;;;;4999091;28;20262;-76
2021/06/18 05:20:24;;;;;;;15.93;11.63;;;26.70;99.90;;;;;;4997717;28;20207;-76
2021/06/18 05:22:51;;;;;;;23.47;12.33;;;27.10;99.90;;;;;;4996623;28;20299;-76
2021/06/18 05:25:19;;;;;;;18.07;12.07;;;27.60;99.90;;;;;;4997166;28;20244;-76
2021/06/18 05:27:46;;;;;;;20.07;12.20;;;28.10;99.90;;;;;;4998605;28;20231;-76
2021/06/18 05:30:16;;;;;;;17.80;11.60;;;28.30;99.90;;;;;;5000169;28;20335;-76
2021/06/18 05:32:43;;;;;;;13.30;11.53;;;28.50;99.90;;;;;;4995354;28;20267;-77
2021/06/18 05:35:10;;;;;;;17.73;12.03;;;27.80;99.90;;;;;;5002349;28;20726;-76
2021/06/18 05:37:37;;;;;;;14.53;11.97;;;28.00;99.90;;;;;;4994221;28;20211;-77
2021/06/18 05:40:06;;;;;;;18.43;11.90;;;29.20;99.90;;;;;;4998164;28;20626;-77
2021/06/18 05:42:34;;;;;;;17.47;11.10;;;29.10;99.90;;;;;;4997181;28;20324;-77
2021/06/18 05:45:01;;;;;;;16.87;11.47;;;28.90;99.90;;;;;;4993620;28;20548;-76
2021/06/18 05:47:28;;;;;;;13.82;11.38;;;29.60;99.90;;;;;;4992805;28;20201;-77
2021/06/18 05:49:55;;;;;;;16.38;11.45;;;30.00;99.90;;;;;;4999389;28;20316;-76
2021/06/18 05:52:22;;;;;;;18.77;11.80;;;30.30;99.90;;;;;;4997287;28;20355;-76
2021/06/18 05:54:49;;;;;;;13.00;11.27;;;30.90;99.90;;;;;;5001549;28;20235;-76
2021/06/18 05:57:16;;;;;;;16.70;11.73;;;31.20;99.90;;;;;;4999999;28;20208;-76
2021/06/18 05:59:45;;;;;;;14.73;11.45;;;31.30;99.90;;;;;;4998366;28;20300;-75
2021/06/18 06:02:12;;;;;;;16.77;12.45;;;31.50;99.90;;;;;;4996166;28;20232;-75
2021/06/18 06:04:38;;;;;;;15.77;11.88;;;32.30;99.90;;;;;;4994115;28;20207;-76
2021/06/18 06:07:06;;;;;;;19.40;13.02;;;31.80;99.90;;;;;;4997684;28;20301;-75
2021/06/18 06:09:33;;;;;;;17.90;14.10;;;31.60;99.90;;;;;;4993507;28;20691;-75
2021/06/18 06:11:59;;;;;;;20.20;12.88;;;31.70;99.90;;;;;;4997089;28;20249;-76
2021/06/18 06:14:26;;;;;;;17.85;12.38;;;31.90;99.90;;;;;;4992830;28;20586;-76
2021/06/18 06:16:55;;;;;;;14.18;11.68;;;32.50;99.90;;;;;;4997548;28;20319;-76
2021/06/18 06:19:22;;;;;;;15.57;10.35;;;33.90;99.90;;;;;;4999890;28;20747;-76
2021/06/18 06:21:49;;;;;;;16.83;12.43;;;34.10;99.90;;;;;;4993132;28;20841;-76
2021/06/18 06:24:16;;;;;;;16.88;11.35;;;34.40;99.90;;;;;;4994333;28;20281;-76
2021/06/18 06:26:42;;;;;;;16.23;12.30;;;33.60;99.90;;;;;;4996771;28;20592;-75
2021/06/18 06:29:09;;;;;;;15.40;10.70;;;33.10;99.90;;;;;;4996302;28;20679;-76
2021/06/18 06:31:38;;;;;;;16.70;12.25;;;33.10;99.90;;;;;;4994491;28;20305;-76
2021/06/18 06:34:06;;;;;;;18.08;12.50;;;33.30;99.90;;;;;;4992713;28;20209;-76
2021/06/18 06:36:33;;;;;;;18.40;12.00;;;33.50;99.90;;;;;;4997015;28;20718;-76
2021/06/18 06:39:02;;;;;;;14.13;9.98;;;33.80;99.90;;;;;;4993225;28;20730;-76
2021/06/18 06:41:29;;;;;;;15.05;11.02;;;33.60;99.90;;;;;;4989545;28;20215;-76
2021/06/18 06:43:56;;;;;;;14.70;10.93;;;34.10;99.90;;;;;;4992652;28;20201;-76
2021/06/18 06:46:23;;;;;;;13.65;10.90;;;34.40;99.90;;;;;;4998276;28;20222;-75
2021/06/18 06:48:50;;;;;;;18.05;11.00;;;;;;;;;;5002284;28;20274;-76
2021/06/18 06:51:19;;;;;;;13.93;10.85;;;34.70;99.90;;;;;;5002928;28;20314;-76
2021/06/18 06:53:46;;;;;;;16.48;12.40;;;35.20;99.90;;;;;;5004055;28;20738;-76
2021/06/18 06:56:14;;;;;;;14.32;10.23;;;34.70;99.90;;;;;;5004159;28;20212;-76
2021/06/18 06:58:42;;;;;;;18.13;10.38;;;34.40;99.90;;;;;;5000138;28;20208;-76
2021/06/18 07:01:09;;;;;;;14.55;10.57;;;35.20;99.90;;;;;;4997640;28;20231;-76
2021/06/18 07:03:36;;;;;;;18.33;9.13;;;35.60;99.90;;;;;;4999266;28;20208;-76
2021/06/18 07:06:03;;;;;;;17.02;10.90;;;36.10;99.90;;;;;;5002939;28;20295;-75
2021/06/18 07:08:32;;;;;;;17.38;10.93;;;;;;;;;;4997363;28;20634;-77
2021/06/18 07:10:59;;;;;;;16.35;9.13;;;;;;;;;;5039353;23;20235;-76
2021/06/18 07:13:26;;;;;;;16.27;10.02;;;;;;;;;;5044735;28;20274;-75
2021/06/18 07:15:54;;;;;;;13.00;10.07;;;;;;;;;;5035215;28;20210;-76
2021/06/18 07:18:21;;;;;;;15.13;10.20;;;;;;;;;;5035556;28;20298;-75
2021/06/18 07:20:49;;;;;;;11.75;9.57;;;;;;;;;;5037653;28;20317;-74
2021/06/18 07:23:16;;;;;;;11.65;9.60;;;;;;;;;;5035480;28;20230;-74
2021/06/18 07:25:45;;;;;;;10.93;8.93;;;;;;;;;;5036492;28;20199;-75
2021/06/18 07:28:13;;;;;;;12.02;7.97;;;;;;;;;;5037990;28;20752;-75
2021/06/18 07:30:40;;;;;;;12.10;7.75;;;;;;;;;;5038957;28;20243;-74
2021/06/18 07:33:08;;;;;;;11.15;8.20;;;;;;;;;;5036523;28;20318;-76
2021/06/18 07:35:35;;;;;;;14.27;8.57;;;;;;;;;;5036985;28;20200;-76
2021/06/18 07:38:03;;;;;;;10.75;7.72;;;;;;;;;;5034917;28;20212;-74
2021/06/18 07:40:30;;;;;;;13.27;8.30;;;;;;;;;;5036458;28;20298;-75
2021/06/18 07:42:59;;;;;;;11.85;8.55;;;;;;;;;;5035138;28;20311;-74
2021/06/18 07:45:26;;;;;;;11.88;8.52;;;;;;;;;;5034629;28;20238;-76
2021/06/18 07:47:53;;;;;;;15.70;8.13;;;;;;;;;;5032503;28;20203;-71
2021/06/18 07:50:21;;;;;;;7.95;7.13;;;;;;;;;;5033826;28;20212;-71
2021/06/18 07:52:48;;;;;;;11.05;7.45;;;;;;;;;;5036906;28;20685;-74
2021/06/18 07:55:19;;;;;;;10.23;7.45;;;;;;;;;;5035613;28;20212;-76
2021/06/18 07:57:46;;;;;;;11.07;8.27;;;;;;;;;;5041861;28;20296;-78
2021/06/18 08:00:16;;;;;;;13.68;7.90;;;;;;;;;;5047425;28;20625;-78
2021/06/18 08:02:43;;;;;;;11.45;8.00;;;;;;;;;;5048051;28;20242;-76
2021/06/18 08:05:11;;;;;;;10.77;7.22;;;;;;;;;;5035258;28;20269;-76
2021/06/18 08:07:39;;;;;;;11.93;7.10;;;;;;;;;;5035320;28;20231;-77
2021/06/18 08:10:06;;;;;;;10.05;6.35;;;;;;;;;;5046442;28;20283;-75
2021/06/18 08:12:33;;;;;;;11.93;6.30;;;;;;;;;;5048003;28;20735;-76
2021/06/18 08:15:01;;;;;;;10.57;6.13;;;;;;;;;;5040134;28;20298;-78
2021/06/18 08:17:29;;;;;;;9.88;5.82;;;;;;;;;;5039689;28;20306;-75
2021/06/18 08:19:56;;;;;;;9.93;5.05;;;;;;;;;;5037424;28;20282;-77
2021/06/18 08:22:24;;;;;;;8.45;4.18;;;;;;;;;;5039041;28;20314;-75
2021/06/18 08:24:51;;;;;;;10.57;3.92;;;;;;;;;;5039074;28;20211;-75
2021/06/18 08:27:18;;;;;;;10.30;3.85;;;;;;;;;;5039097;28;20330;-75
2021/06/18 08:29:45;;;;;;;9.52;3.95;;;;;;;;;;5037492;28;20207;-76
2021/06/18 08:32:13;;;;;;;7.32;4.38;;;;;;;;;;5038383;28;20699;-76
2021/06/18 08:34:41;;;;;;;8.38;4.35;;;;;;;;;;5043349;28;20231;-77
2021/06/18 08:37:08;;;;;;;6.95;3.95;;;;;;;;;;5046463;28;20731;-77
2021/06/18 08:39:36;;;;;;;8.55;4.10;;;;;;;;;;5041840;28;20272;-78
2021/06/18 08:42:03;;;;;;;5.82;4.32;;;;;;;;;;5043507;28;20305;-76
2021/06/18 08:44:31;;;;;;;9.73;4.55;;;;;;;;;;5043751;28;20286;-76
2021/06/18 08:46:58;;;;;;;7.90;4.50;;;;;;;;;;5042353;28;20208;-77
2021/06/18 08:49:26;;;;;;;10.73;4.95;;;;;;;;;;5043763;28;20294;-78
2021/06/18 08:51:55;;;;;;;6.93;4.30;;;;;;;;;;5042860;28;20242;-78
2021/06/18 08:54:41;;;;;;;7.88;4.22;;;;;;;;;;5037275;28;20251;-77
2021/06/18 08:57:08;;;;;;;8.20;4.80;;;;;;;;;;5048691;28;20207;-78
2021/06/18 08:59:35;;;;;;;9.18;4.97;;;;;;;;;;5040679;28;20299;-74
2021/06/18 09:02:02;;;;;;;6.95;5.03;;;;;;;;;;5042386;28;20294;-75
2021/06/18 09:04:29;;;;;;;9.80;4.68;;;;;;;;;;5034093;28;20282;-75
2021/06/18 09:07:00;;;;;;;6.43;4.68;;;;;;;;;;5040839;28;20239;-75
2021/06/18 09:09:28;;;;;;;10.18;5.28;;;;;;;;;;5041338;28;20294;-75
2021/06/18 09:11:56;;;;;;;6.47;4.60;;;;;;;;;;5041061;28;20281;-75
2021/06/18 09:14:28;;;;;;;5.85;4.07;;;36.90;99.90;;;;;;5045975;28;20215;-75
2021/06/18 09:17:07;;;;;;;12.23;5.00;;;38.20;94.40;;;;;;5040873;28;20239;-75
2021/06/18 09:19:35;;;;;;;11.18;4.90;;;37.40;95.60;;;;;;5040020;28;20522;-75
2021/06/18 09:22:07;;;;;;;6.85;4.85;;;36.80;95.40;;;;;;5046923;28;20271;-76
2021/06/18 09:24:36;;;;;;;9.80;5.65;;;36.00;96.20;;;;;;5044691;28;20238;-75
2021/06/18 09:27:04;;;;;;;11.85;5.40;;;35.00;97.20;;;;;;5047854;28;20214;-76
2021/06/18 09:29:31;;;;;;;8.15;5.18;;;34.80;97.30;;;;;;5035341;28;20288;-76
2021/06/18 09:32:00;;;;;;;9.13;5.40;;;34.40;97.40;;;;;;5037412;28;20323;-77
2021/06/18 09:34:36;;;;;;;14.23;5.18;;;34.00;99.10;;;;;;5044395;28;20211;-76
2021/06/18 09:37:25;;;;;;;11.35;5.82;;;34.00;99.00;;;;;;5043265;28;20234;-78
2021/06/18 09:40:11;;;;;;;10.52;5.00;;;33.90;99.40;;;;;;5039046;28;20239;-79
2021/06/18 09:42:49;;;;;;;11.27;5.60;;;33.80;98.90;;;;;;5025661;28;20318;-75
2021/06/18 09:45:18;;;;;;;9.93;5.15;;;33.80;99.10;;;;;;5038187;28;20644;-74
2021/06/18 09:47:46;;;;;;;8.57;5.38;;;33.60;99.50;;;;;;5040616;28;21490;-77
2021/06/18 09:50:27;;;;;;;9.50;5.60;;;33.30;99.20;;;;;;5045692;28;20657;-74
2021/06/18 09:53:11;;;;;;;15.45;5.78;;;33.30;99.90;;;;;;5038733;28;20251;-75
2021/06/18 09:55:38;;;;;;;11.32;5.47;;;33.40;99.90;;;;;;5037887;28;20199;-75
2021/06/18 09:58:05;;;;;;;7.47;5.43;;;33.40;99.90;;;;;;5045521;28;20222;-74
2021/06/18 10:00:32;;;;;;;12.45;5.05;;;33.30;99.40;;;;;;5039067;28;20656;-75
2021/06/18 10:03:00;;;;;;;11.52;5.78;;;33.30;99.30;;;;;;5039431;28;20250;-74
2021/06/18 10:05:31;;;;;;;9.43;6.22;;;33.30;99.90;;;;;;5041980;28;20569;-75
2021/06/18 10:08:00;;;;;;;9.77;5.88;;;33.40;99.90;;;;;;5039660;28;20222;-74
2021/06/18 10:10:28;;;;;;;8.50;5.50;;;33.40;99.90;;;;;;5034656;28;20301;-74
2021/06/18 10:12:56;;;;;;;9.85;5.70;;;33.50;99.90;;;;;;5035702;28;20628;-74
2021/06/18 10:15:25;;;;;;;7.75;5.10;;;33.80;99.50;;;;;;5037263;28;20249;-75
2021/06/18 10:17:53;;;;;;;11.55;5.63;;;33.90;99.90;;;;;;5039021;28;20725;-74
2021/06/18 10:20:22;;;;;;;9.40;5.50;;;33.80;99.10;;;;;;5035750;28;20234;-76
2021/06/18 10:22:55;;;;;;;9.45;5.05;;;33.60;98.30;;;;;;5034746;28;20218;-75
2021/06/18 10:25:28;;;;;;;7.00;5.00;;;33.60;97.50;;;;;;5038128;28;20302;-74
2021/06/18 10:27:56;;;;;;;7.57;4.97;;;33.80;96.80;;;;;;5034566;28;20216;-74
2021/06/18 10:30:25;;;;;;;7.45;4.55;;;33.90;96.60;;;;;;5041121;28;20207;-74
2021/06/18 10:32:53;;;;;;;7.22;4.07;;;34.00;95.40;;;;;;5041018;28;20297;-73
2021/06/18 10:35:45;;;;;;;8.68;4.07;;;34.10;95.20;;;;;;5036017;28;20211;-73
2021/06/18 10:38:24;;;;;;;7.30;3.35;;;34.20;95.60;;;;;;5040746;28;20225;-74
2021/06/18 10:40:54;;;;;;;7.03;4.00;;;34.20;92.80;;;;;;5037324;28;20310;-76
2021/06/18 10:43:21;;;;;;;8.48;4.38;;;34.30;93.00;;;;;;5042147;28;20317;-77
2021/06/18 10:46:08;;;;;;;10.98;4.78;;;34.50;96.50;;;;;;5044694;28;20282;-74
2021/06/18 10:48:57;;;;;;;11.25;4.82;;;34.80;97.30;;;;;;5037060;28;20250;-77
2021/06/18 10:51:44;;;;;;;10.00;4.65;;;34.90;97.60;;;;;;5036894;28;20765;-74
2021/06/18 10:54:16;;;;;;;10.07;4.30;;;35.00;96.70;;;;;;5038757;28;20325;-76
2021/06/18 10:57:15;;;;;;;7.45;4.82;;;34.80;96.80;;;;;;5036564;28;20200;-74
2021/06/18 10:59:46;;;;;;;11.63;4.63;;;34.90;96.90;;;;;;5008647;28;20680;-74
2021/06/18 11:02:35;;;;;;;7.20;4.80;;;34.80;95.80;;;;;;5029205;28;20807;-74
2021/06/18 11:05:06;;;;;;;8.65;5.05;;;34.40;95.30;;;;;;5030848;28;20738;-75
2021/06/18 11:07:34;;;;;;;7.35;4.75;;;34.50;96.20;;;;;;5032518;28;20292;-75
2021/06/18 11:10:02;;;;;;;11.98;4.90;;;34.40;96.20;;;;;;5031313;28;20209;-74
2021/06/18 11:12:45;;;;;;;5.95;4.97;;;34.10;95.90;;;;;;5038146;28;20339;-77
2021/06/18 11:15:44;;;;;;;10.90;4.88;;;34.00;95.60;;;;;;5043348;28;20210;-75
2021/06/18 11:18:17;;;;;;;6.75;4.80;;;33.80;95.80;;;;;;5024889;28;20299;-74
2021/06/18 11:21:01;;;;;;;8.57;4.53;;;33.90;95.70;;;;;;5034767;28;20241;-75
2021/06/18 11:23:31;;;;;;;8.05;4.50;;;33.80;98.00;;;;;;5038038;28;20320;-74
2021/06/18 11:26:06;;;;;;;6.43;4.50;;;33.80;96.20;;;;;;5040307;28;20389;-74
2021/06/18 11:28:38;;;;;;;6.63;4.18;;;33.80;96.90;;;;;;5037866;28;20228;-73
2021/06/18 11:31:08;;;;;;;13.63;5.28;;;33.80;98.70;;;;;;5038049;28;20634;-77
2021/06/18 11:33:55;;;;;;;7.22;4.53;;;33.80;97.60;;;;;;5038838;28;20259;-75
2021/06/18 11:36:53;;;;;;;7.30;5.00;;;33.80;98.70;;;;;;5036213;28;20242;-76
2021/06/18 11:39:25;;;;;;;8.90;5.38;;;33.70;99.90;;;;;;5037579;28;20207;-74
2021/06/18 11:42:04;;;;;;;10.25;5.30;;;33.60;99.90;;;;;;5035855;28;20244;-74
2021/06/18 11:44:33;;;;;;;6.70;5.05;;;33.50;99.90;;;;;;5036675;28;20684;-77
2021/06/18 11:47:01;;;;;;;7.25;5.28;;;33.30;99.90;;;;;;5034408;28;20311;-74
2021/06/18 11:49:32;;;;;;;10.45;5.32;;;33.20;99.90;;;;;;5033314;28;20219;-74
2021/06/18 11:52:03;;;;;;;7.43;5.07;;;33.00;99.90;;;;;;5039911;28;20234;-75
2021/06/18 11:54:31;;;;;;;16.90;5.47;;;32.90;99.90;;;;;;5034194;28;20200;-74
2021/06/18 11:57:04;;;;;;;11.00;5.32;;;32.80;99.90;;;;;;5038582;28;20249;-75
2021/06/18 11:59:33;;;;;;;11.82;5.50;;;32.70;99.90;;;;;;5037464;28;20261;-76
2021/06/18 12:02:14;;;;;;;10.38;5.80;;;32.60;99.90;;;;;;5037190;28;20253;-75
2021/06/18 12:04:42;;;;;;;11.70;5.95;;;32.40;99.90;;;;;;5040235;28;20671;-73
2021/06/18 12:07:08;;;;;;;13.07;5.07;;;32.30;99.90;;;;;;5043164;28;20247;-74
2021/06/18 12:09:40;;;;;;;10.00;5.75;;;32.20;99.90;;;;;;5039176;28;20729;-74
2021/06/18 12:12:09;;;;;;;9.82;5.68;;;32.00;99.90;;;;;;5041111;28;20265;-74
2021/06/18 12:14:39;;;;;;;9.30;5.72;;;32.10;99.90;;;;;;5041622;28;20656;-74
2021/06/18 12:17:07;;;;;;;11.93;5.80;;;32.50;99.90;;;;;;5042518;28;20239;-77
2021/06/18 12:19:34;;;;;;;12.02;5.75;;;32.90;99.90;;;;;;5031024;28;20302;-75
2021/06/18 12:22:05;;;;;;;12.77;5.95;;;33.20;99.90;;;;;;5036107;28;20219;-75
2021/06/18 12:24:34;;;;;;;6.53;5.55;;;33.50;99.90;;;;;;5032684;28;20347;-75
2021/06/18 12:27:04;;;;;;;13.73;5.82;;;33.60;99.90;;;;;;5030843;28;20704;-78
2021/06/18 12:29:31;;;;;;;12.30;5.78;;;33.50;99.90;;;;;;5036189;28;20295;-75
2021/06/18 12:32:01;;;;;;;15.30;6.10;;;33.10;99.90;;;;;;5033409;28;20517;-78
2021/06/18 12:34:29;;;;;;;14.15;6.50;;;32.80;99.90;;;;;;5031303;28;20251;-75
2021/06/18 12:37:04;;;;;;;10.77;6.15;;;32.50;99.90;;;;;;5032157;28;20243;-76
2021/06/18 12:39:31;;;;;;;8.02;5.70;;;32.10;99.90;;;;;;5034516;28;20209;-77
2021/06/18 12:41:58;;;;;;;9.30;6.10;;;31.60;99.90;;;;;;5036718;28;20247;-74
2021/06/18 12:44:37;;;;;;;9.87;6.33;;;31.00;99.90;;;;;;5033339;28;20333;-76
2021/06/18 12:47:10;;;;;;;8.83;5.53;;;30.50;99.90;;;;;;5033980;28;20213;-75
2021/06/18 12:49:37;;;;;;;9.17;6.20;;;30.20;99.90;;;;;;5033590;28;20289;-75
2021/06/18 12:52:15;;;;;;;15.47;6.70;;;30.00;99.90;;;;;;5035236;28;20227;-75
2021/06/18 12:54:43;;;;;;;17.07;7.47;;;29.90;99.90;;;;;;5033663;28;20246;-75
2021/06/18 12:57:24;;;;;;;18.30;7.90;;;29.40;99.90;;;;;;5033530;28;20593;-75
2021/06/18 13:00:06;;;;;;;24.90;8.93;;;28.70;99.90;;;;;;5033529;28;20245;-76
2021/06/18 13:02:36;;;;;;;12.83;7.10;;;27.90;99.90;;;;;;5039005;28;20333;-74
2021/06/18 13:05:17;;;;;;;13.47;7.20;;;27.30;99.90;;;;;;5032544;28;20255;-75